sensor_id;sensor_type;location;lat;lon;timestamp;P1;durP1;ratioP1;P2;durP2;ratioP2
11522;SDS011;70090;43.208;27.904;2023-05-23T00:01:05;5.30;;;4.80;;
11522;SDS011;70090;43.208;27.904;2023-05-23T00:03:32;7.20;;;4.67;;
11522;SDS011;70090;43.208;27.904;2023-05-23T00:05:59;5.47;;;4.70;;
11522;SDS011;70090;43.208;27.904;2023-05-23T00:08:26;9.63;;;5.10;;
11522;SDS011;70090;43.208;27.904;2023-05-23T00:10:53;9.63;;;4.30;;
11522;SDS011;70090;43.208;27.904;2023-05-23T00:13:21;8.83;;;4.70;;
11522;SDS011;70090;43.208;27.904;2023-05-23T00:15:48;7.97;;;4.37;;
11522;SDS011;70090;43.208;27.904;2023-05-23T00:18:16;7.33;;;4.50;;
11522;SDS011;70090;43.208;27.904;2023-05-23T00:20:43;6.67;;;4.40;;
11522;SDS011;70090;43.208;27.904;2023-05-23T00:23:11;11.80;;;4.50;;
11522;SDS011;70090;43.208;27.904;2023-05-23T00:25:43;6.20;;;4.20;;
11522;SDS011;70090;43.208;27.904;2023-05-23T00:28:12;6.03;;;4.07;;
11522;SDS011;70090;43.208;27.904;2023-05-23T00:30:42;7.00;;;4.80;;
11522;SDS011;70090;43.208;27.904;2023-05-23T00:33:09;8.77;;;4.43;;
11522;SDS011;70090;43.208;27.904;2023-05-23T00:35:38;4.87;;;4.37;;
11522;SDS011;70090;43.208;27.904;2023-05-23T00:38:04;5.10;;;4.50;;
11522;SDS011;70090;43.208;27.904;2023-05-23T00:40:31;5.97;;;4.40;;
11522;SDS011;70090;43.208;27.904;2023-05-23T00:42:59;5.37;;;4.00;;
11522;SDS011;70090;43.208;27.904;2023-05-23T00:45:25;8.47;;;4.73;;
11522;SDS011;70090;43.208;27.904;2023-05-23T00:47:54;7.13;;;4.00;;
11522;SDS011;70090;43.208;27.904;2023-05-23T00:50:20;11.60;;;4.47;;
11522;SDS011;70090;43.208;27.904;2023-05-23T00:52:47;6.27;;;4.40;;
11522;SDS011;70090;43.208;27.904;2023-05-23T00:55:14;6.23;;;4.57;;
11522;SDS011;70090;43.208;27.904;2023-05-23T00:57:41;6.73;;;4.43;;
11522;SDS011;70090;43.208;27.904;2023-05-23T01:00:09;4.77;;;4.10;;
11522;SDS011;70090;43.208;27.904;2023-05-23T01:02:38;6.83;;;4.33;;
11522;SDS011;70090;43.208;27.904;2023-05-23T01:05:10;4.97;;;4.20;;
11522;SDS011;70090;43.208;27.904;2023-05-23T01:07:39;8.83;;;4.70;;
11522;SDS011;70090;43.208;27.904;2023-05-23T01:10:06;7.73;;;4.30;;
11522;SDS011;70090;43.208;27.904;2023-05-23T01:12:36;5.07;;;4.30;;
11522;SDS011;70090;43.208;27.904;2023-05-23T01:15:11;7.93;;;4.47;;
11522;SDS011;70090;43.208;27.904;2023-05-23T01:17:42;9.10;;;4.80;;
11522;SDS011;70090;43.208;27.904;2023-05-23T01:20:14;7.57;;;4.60;;
11522;SDS011;70090;43.208;27.904;2023-05-23T01:25:45;8.37;;;4.37;;
11522;SDS011;70090;43.208;27.904;2023-05-23T01:28:25;7.97;;;4.40;;
11522;SDS011;70090;43.208;27.904;2023-05-23T01:30:56;7.80;;;4.57;;
11522;SDS011;70090;43.208;27.904;2023-05-23T01:33:24;9.43;;;4.70;;
11522;SDS011;70090;43.208;27.904;2023-05-23T01:35:52;5.87;;;4.50;;
11522;SDS011;70090;43.208;27.904;2023-05-23T01:38:21;9.53;;;4.77;;
11522;SDS011;70090;43.208;27.904;2023-05-23T01:40:48;6.77;;;4.23;;
11522;SDS011;70090;43.208;27.904;2023-05-23T01:43:15;7.23;;;4.23;;
11522;SDS011;70090;43.208;27.904;2023-05-23T01:45:44;7.43;;;4.13;;
11522;SDS011;70090;43.208;27.904;2023-05-23T01:48:11;5.70;;;4.10;;
11522;SDS011;70090;43.208;27.904;2023-05-23T01:50:41;7.03;;;4.63;;
11522;SDS011;70090;43.208;27.904;2023-05-23T01:53:10;9.73;;;4.40;;
11522;SDS011;70090;43.208;27.904;2023-05-23T01:55:38;7.33;;;4.23;;
11522;SDS011;70090;43.208;27.904;2023-05-23T01:58:06;6.97;;;4.30;;
11522;SDS011;70090;43.208;27.904;2023-05-23T02:00:34;7.57;;;4.30;;
11522;SDS011;70090;43.208;27.904;2023-05-23T02:03:02;5.80;;;4.30;;
11522;SDS011;70090;43.208;27.904;2023-05-23T02:05:30;7.60;;;4.00;;
11522;SDS011;70090;43.208;27.904;2023-05-23T02:07:56;6.83;;;4.40;;
11522;SDS011;70090;43.208;27.904;2023-05-23T02:10:23;8.47;;;4.60;;
11522;SDS011;70090;43.208;27.904;2023-05-23T02:12:50;10.50;;;4.43;;
11522;SDS011;70090;43.208;27.904;2023-05-23T02:15:17;7.97;;;4.10;;
11522;SDS011;70090;43.208;27.904;2023-05-23T02:17:44;5.77;;;4.33;;
11522;SDS011;70090;43.208;27.904;2023-05-23T02:20:13;6.73;;;4.40;;
11522;SDS011;70090;43.208;27.904;2023-05-23T02:22:43;5.00;;;4.50;;
11522;SDS011;70090;43.208;27.904;2023-05-23T02:25:09;5.57;;;4.17;;
11522;SDS011;70090;43.208;27.904;2023-05-23T02:27:36;6.00;;;4.20;;
11522;SDS011;70090;43.208;27.904;2023-05-23T02:30:03;6.87;;;4.40;;
11522;SDS011;70090;43.208;27.904;2023-05-23T02:32:31;6.87;;;4.30;;
11522;SDS011;70090;43.208;27.904;2023-05-23T02:34:58;7.23;;;4.43;;
11522;SDS011;70090;43.208;27.904;2023-05-23T02:37:26;5.43;;;4.50;;
11522;SDS011;70090;43.208;27.904;2023-05-23T02:39:53;7.30;;;4.60;;
11522;SDS011;70090;43.208;27.904;2023-05-23T02:42:19;6.63;;;4.67;;
11522;SDS011;70090;43.208;27.904;2023-05-23T02:44:46;6.07;;;4.30;;
11522;SDS011;70090;43.208;27.904;2023-05-23T02:47:13;9.23;;;4.80;;
11522;SDS011;70090;43.208;27.904;2023-05-23T02:49:40;7.63;;;4.87;;
11522;SDS011;70090;43.208;27.904;2023-05-23T02:52:07;6.57;;;5.00;;
11522;SDS011;70090;43.208;27.904;2023-05-23T02:54:35;8.00;;;5.30;;
11522;SDS011;70090;43.208;27.904;2023-05-23T02:57:02;8.40;;;4.63;;
11522;SDS011;70090;43.208;27.904;2023-05-23T02:59:29;8.90;;;4.93;;
11522;SDS011;70090;43.208;27.904;2023-05-23T03:01:55;6.83;;;5.30;;
11522;SDS011;70090;43.208;27.904;2023-05-23T03:04:22;8.00;;;5.37;;
11522;SDS011;70090;43.208;27.904;2023-05-23T03:06:49;5.67;;;4.43;;
11522;SDS011;70090;43.208;27.904;2023-05-23T03:09:19;9.03;;;5.00;;
11522;SDS011;70090;43.208;27.904;2023-05-23T03:11:47;6.67;;;4.60;;
11522;SDS011;70090;43.208;27.904;2023-05-23T03:14:14;6.50;;;5.10;;
11522;SDS011;70090;43.208;27.904;2023-05-23T03:16:41;9.70;;;5.20;;
11522;SDS011;70090;43.208;27.904;2023-05-23T03:19:07;6.07;;;5.10;;
11522;SDS011;70090;43.208;27.904;2023-05-23T03:21:34;7.97;;;5.00;;
11522;SDS011;70090;43.208;27.904;2023-05-23T03:24:01;6.17;;;4.90;;
11522;SDS011;70090;43.208;27.904;2023-05-23T03:26:28;6.80;;;4.77;;
11522;SDS011;70090;43.208;27.904;2023-05-23T03:28:56;6.97;;;4.83;;
11522;SDS011;70090;43.208;27.904;2023-05-23T03:31:23;6.53;;;5.23;;
11522;SDS011;70090;43.208;27.904;2023-05-23T03:33:50;7.17;;;5.30;;
11522;SDS011;70090;43.208;27.904;2023-05-23T03:36:17;8.03;;;5.30;;
11522;SDS011;70090;43.208;27.904;2023-05-23T03:38:46;6.40;;;4.70;;
11522;SDS011;70090;43.208;27.904;2023-05-23T03:41:12;7.03;;;5.50;;
11522;SDS011;70090;43.208;27.904;2023-05-23T03:43:39;7.37;;;5.20;;
11522;SDS011;70090;43.208;27.904;2023-05-23T03:46:08;7.07;;;5.00;;
11522;SDS011;70090;43.208;27.904;2023-05-23T03:48:35;6.73;;;5.60;;
11522;SDS011;70090;43.208;27.904;2023-05-23T03:51:01;7.90;;;5.10;;
11522;SDS011;70090;43.208;27.904;2023-05-23T03:53:28;6.30;;;4.80;;
11522;SDS011;70090;43.208;27.904;2023-05-23T03:55:55;8.17;;;5.00;;
11522;SDS011;70090;43.208;27.904;2023-05-23T03:58:22;8.23;;;5.27;;
11522;SDS011;70090;43.208;27.904;2023-05-23T04:00:49;6.43;;;5.53;;
11522;SDS011;70090;43.208;27.904;2023-05-23T04:03:18;8.10;;;4.93;;
11522;SDS011;70090;43.208;27.904;2023-05-23T04:05:45;8.43;;;4.77;;
11522;SDS011;70090;43.208;27.904;2023-05-23T04:08:12;6.97;;;4.90;;
11522;SDS011;70090;43.208;27.904;2023-05-23T04:10:40;7.20;;;4.80;;
11522;SDS011;70090;43.208;27.904;2023-05-23T04:13:07;10.23;;;5.13;;
11522;SDS011;70090;43.208;27.904;2023-05-23T04:15:33;6.43;;;4.83;;
11522;SDS011;70090;43.208;27.904;2023-05-23T04:18:00;7.27;;;4.67;;
11522;SDS011;70090;43.208;27.904;2023-05-23T04:20:29;7.07;;;4.90;;
11522;SDS011;70090;43.208;27.904;2023-05-23T04:22:55;7.13;;;5.40;;
11522;SDS011;70090;43.208;27.904;2023-05-23T04:25:22;7.97;;;5.40;;
11522;SDS011;70090;43.208;27.904;2023-05-23T04:27:50;6.27;;;5.03;;
11522;SDS011;70090;43.208;27.904;2023-05-23T04:30:18;8.20;;;4.70;;
11522;SDS011;70090;43.208;27.904;2023-05-23T04:32:45;5.70;;;5.00;;
11522;SDS011;70090;43.208;27.904;2023-05-23T04:35:12;8.80;;;4.80;;
11522;SDS011;70090;43.208;27.904;2023-05-23T04:37:40;7.30;;;4.40;;
11522;SDS011;70090;43.208;27.904;2023-05-23T04:40:10;7.20;;;4.47;;
11522;SDS011;70090;43.208;27.904;2023-05-23T04:42:37;7.83;;;4.73;;
11522;SDS011;70090;43.208;27.904;2023-05-23T04:45:07;8.07;;;4.90;;
11522;SDS011;70090;43.208;27.904;2023-05-23T04:47:35;7.83;;;5.20;;
11522;SDS011;70090;43.208;27.904;2023-05-23T04:50:02;7.27;;;4.80;;
11522;SDS011;70090;43.208;27.904;2023-05-23T04:52:29;8.37;;;5.50;;
11522;SDS011;70090;43.208;27.904;2023-05-23T04:54:59;7.37;;;4.50;;
11522;SDS011;70090;43.208;27.904;2023-05-23T04:57:26;10.83;;;5.00;;
11522;SDS011;70090;43.208;27.904;2023-05-23T04:59:53;9.70;;;6.00;;
11522;SDS011;70090;43.208;27.904;2023-05-23T05:02:21;6.23;;;4.60;;
11522;SDS011;70090;43.208;27.904;2023-05-23T05:04:47;8.37;;;4.67;;
11522;SDS011;70090;43.208;27.904;2023-05-23T05:07:15;7.00;;;4.70;;
11522;SDS011;70090;43.208;27.904;2023-05-23T05:09:42;7.30;;;5.20;;
11522;SDS011;70090;43.208;27.904;2023-05-23T05:12:10;8.57;;;5.30;;
11522;SDS011;70090;43.208;27.904;2023-05-23T05:14:37;5.03;;;4.07;;
11522;SDS011;70090;43.208;27.904;2023-05-23T05:17:04;7.50;;;4.53;;
11522;SDS011;70090;43.208;27.904;2023-05-23T05:19:31;8.03;;;4.80;;
11522;SDS011;70090;43.208;27.904;2023-05-23T05:21:58;7.07;;;4.90;;
11522;SDS011;70090;43.208;27.904;2023-05-23T05:24:25;7.43;;;5.23;;
11522;SDS011;70090;43.208;27.904;2023-05-23T05:26:53;8.40;;;5.70;;
11522;SDS011;70090;43.208;27.904;2023-05-23T05:29:21;10.63;;;5.00;;
11522;SDS011;70090;43.208;27.904;2023-05-23T05:31:48;10.30;;;5.43;;
11522;SDS011;70090;43.208;27.904;2023-05-23T05:34:15;10.83;;;5.00;;
11522;SDS011;70090;43.208;27.904;2023-05-23T05:36:41;9.97;;;5.23;;
11522;SDS011;70090;43.208;27.904;2023-05-23T05:39:11;10.57;;;4.97;;
11522;SDS011;70090;43.208;27.904;2023-05-23T05:41:39;7.50;;;5.03;;
11522;SDS011;70090;43.208;27.904;2023-05-23T05:44:05;6.33;;;4.77;;
11522;SDS011;70090;43.208;27.904;2023-05-23T05:46:34;6.20;;;5.00;;
11522;SDS011;70090;43.208;27.904;2023-05-23T05:49:00;6.13;;;4.20;;
11522;SDS011;70090;43.208;27.904;2023-05-23T05:51:27;7.27;;;4.80;;
11522;SDS011;70090;43.208;27.904;2023-05-23T05:53:55;6.67;;;4.87;;
11522;SDS011;70090;43.208;27.904;2023-05-23T05:56:22;5.83;;;4.63;;
11522;SDS011;70090;43.208;27.904;2023-05-23T05:58:50;6.43;;;5.00;;
11522;SDS011;70090;43.208;27.904;2023-05-23T06:01:17;7.30;;;5.10;;
11522;SDS011;70090;43.208;27.904;2023-05-23T06:03:45;9.17;;;5.00;;
11522;SDS011;70090;43.208;27.904;2023-05-23T06:06:12;14.00;;;5.60;;
11522;SDS011;70090;43.208;27.904;2023-05-23T06:08:40;10.63;;;5.00;;
11522;SDS011;70090;43.208;27.904;2023-05-23T06:11:08;11.30;;;5.10;;
11522;SDS011;70090;43.208;27.904;2023-05-23T06:13:36;7.33;;;4.80;;
11522;SDS011;70090;43.208;27.904;2023-05-23T06:16:03;7.57;;;4.73;;
11522;SDS011;70090;43.208;27.904;2023-05-23T06:18:30;7.53;;;5.07;;
11522;SDS011;70090;43.208;27.904;2023-05-23T06:20:58;9.03;;;5.33;;
11522;SDS011;70090;43.208;27.904;2023-05-23T06:23:25;8.87;;;5.90;;
11522;SDS011;70090;43.208;27.904;2023-05-23T06:25:52;7.90;;;5.40;;
11522;SDS011;70090;43.208;27.904;2023-05-23T06:28:19;5.33;;;4.50;;
11522;SDS011;70090;43.208;27.904;2023-05-23T06:30:46;9.07;;;5.10;;
11522;SDS011;70090;43.208;27.904;2023-05-23T06:33:12;8.87;;;5.50;;
11522;SDS011;70090;43.208;27.904;2023-05-23T06:35:40;11.67;;;5.70;;
11522;SDS011;70090;43.208;27.904;2023-05-23T06:38:08;12.77;;;5.90;;
11522;SDS011;70090;43.208;27.904;2023-05-23T06:40:35;9.50;;;5.70;;
11522;SDS011;70090;43.208;27.904;2023-05-23T06:43:02;13.60;;;6.60;;
11522;SDS011;70090;43.208;27.904;2023-05-23T06:45:29;8.53;;;5.17;;
11522;SDS011;70090;43.208;27.904;2023-05-23T06:47:55;10.10;;;6.03;;
11522;SDS011;70090;43.208;27.904;2023-05-23T06:50:25;13.63;;;8.73;;
11522;SDS011;70090;43.208;27.904;2023-05-23T06:52:51;12.80;;;7.10;;
11522;SDS011;70090;43.208;27.904;2023-05-23T06:55:20;10.67;;;7.17;;
11522;SDS011;70090;43.208;27.904;2023-05-23T06:57:47;11.27;;;7.23;;
11522;SDS011;70090;43.208;27.904;2023-05-23T07:00:16;13.20;;;7.60;;
11522;SDS011;70090;43.208;27.904;2023-05-23T07:02:43;8.47;;;6.37;;
11522;SDS011;70090;43.208;27.904;2023-05-23T07:05:12;11.87;;;7.10;;
11522;SDS011;70090;43.208;27.904;2023-05-23T07:07:39;13.33;;;8.37;;
11522;SDS011;70090;43.208;27.904;2023-05-23T07:10:06;14.27;;;6.77;;
11522;SDS011;70090;43.208;27.904;2023-05-23T07:12:35;12.13;;;8.37;;
11522;SDS011;70090;43.208;27.904;2023-05-23T07:15:02;8.60;;;5.47;;
11522;SDS011;70090;43.208;27.904;2023-05-23T07:17:30;10.10;;;5.80;;
11522;SDS011;70090;43.208;27.904;2023-05-23T07:19:57;10.23;;;6.13;;
11522;SDS011;70090;43.208;27.904;2023-05-23T07:22:23;9.60;;;6.33;;
11522;SDS011;70090;43.208;27.904;2023-05-23T07:24:51;8.57;;;5.60;;
11522;SDS011;70090;43.208;27.904;2023-05-23T07:27:17;6.93;;;5.10;;
11522;SDS011;70090;43.208;27.904;2023-05-23T07:29:46;7.90;;;5.63;;
11522;SDS011;70090;43.208;27.904;2023-05-23T07:32:13;12.13;;;7.57;;
11522;SDS011;70090;43.208;27.904;2023-05-23T07:34:39;11.17;;;7.40;;
11522;SDS011;70090;43.208;27.904;2023-05-23T07:37:06;12.63;;;7.63;;
11522;SDS011;70090;43.208;27.904;2023-05-23T07:39:33;10.53;;;7.60;;
11522;SDS011;70090;43.208;27.904;2023-05-23T07:42:00;13.17;;;7.33;;
11522;SDS011;70090;43.208;27.904;2023-05-23T07:44:27;7.83;;;6.17;;
11522;SDS011;70090;43.208;27.904;2023-05-23T07:46:55;11.50;;;8.00;;
11522;SDS011;70090;43.208;27.904;2023-05-23T07:49:22;10.10;;;5.97;;
11522;SDS011;70090;43.208;27.904;2023-05-23T07:51:49;6.87;;;5.40;;
11522;SDS011;70090;43.208;27.904;2023-05-23T07:54:16;9.40;;;6.23;;
11522;SDS011;70090;43.208;27.904;2023-05-23T07:56:43;9.27;;;6.20;;
11522;SDS011;70090;43.208;27.904;2023-05-23T07:59:09;9.77;;;6.13;;
11522;SDS011;70090;43.208;27.904;2023-05-23T08:01:37;8.53;;;6.30;;
11522;SDS011;70090;43.208;27.904;2023-05-23T08:04:05;12.50;;;7.37;;
11522;SDS011;70090;43.208;27.904;2023-05-23T08:06:32;9.20;;;5.50;;
11522;SDS011;70090;43.208;27.904;2023-05-23T08:08:59;12.83;;;7.80;;
11522;SDS011;70090;43.208;27.904;2023-05-23T08:11:26;10.30;;;6.43;;
11522;SDS011;70090;43.208;27.904;2023-05-23T08:13:54;7.70;;;5.10;;
11522;SDS011;70090;43.208;27.904;2023-05-23T08:16:21;7.37;;;5.50;;
11522;SDS011;70090;43.208;27.904;2023-05-23T08:18:48;14.47;;;8.10;;
11522;SDS011;70090;43.208;27.904;2023-05-23T08:21:16;14.57;;;8.63;;
11522;SDS011;70090;43.208;27.904;2023-05-23T08:23:43;11.13;;;6.60;;
11522;SDS011;70090;43.208;27.904;2023-05-23T08:26:10;8.43;;;5.63;;
11522;SDS011;70090;43.208;27.904;2023-05-23T08:28:36;7.63;;;5.67;;
11522;SDS011;70090;43.208;27.904;2023-05-23T08:31:03;10.37;;;7.73;;
11522;SDS011;70090;43.208;27.904;2023-05-23T08:33:31;10.23;;;6.20;;
11522;SDS011;70090;43.208;27.904;2023-05-23T08:35:58;10.33;;;5.73;;
11522;SDS011;70090;43.208;27.904;2023-05-23T08:38:26;10.37;;;5.87;;
11522;SDS011;70090;43.208;27.904;2023-05-23T08:40:53;9.10;;;5.80;;
11522;SDS011;70090;43.208;27.904;2023-05-23T08:43:23;9.13;;;6.00;;
11522;SDS011;70090;43.208;27.904;2023-05-23T08:45:50;9.03;;;6.20;;
11522;SDS011;70090;43.208;27.904;2023-05-23T08:48:18;8.67;;;5.60;;
11522;SDS011;70090;43.208;27.904;2023-05-23T08:50:46;7.37;;;6.50;;
11522;SDS011;70090;43.208;27.904;2023-05-23T08:53:15;10.43;;;7.80;;
11522;SDS011;70090;43.208;27.904;2023-05-23T08:55:46;10.87;;;7.63;;
11522;SDS011;70090;43.208;27.904;2023-05-23T08:58:15;8.27;;;5.63;;
11522;SDS011;70090;43.208;27.904;2023-05-23T09:00:45;8.17;;;5.90;;
11522;SDS011;70090;43.208;27.904;2023-05-23T09:03:12;10.47;;;5.63;;
11522;SDS011;70090;43.208;27.904;2023-05-23T09:05:40;7.40;;;5.47;;
11522;SDS011;70090;43.208;27.904;2023-05-23T09:08:07;9.87;;;6.33;;
11522;SDS011;70090;43.208;27.904;2023-05-23T09:10:34;9.50;;;6.37;;
11522;SDS011;70090;43.208;27.904;2023-05-23T09:13:04;9.03;;;6.47;;
11522;SDS011;70090;43.208;27.904;2023-05-23T09:15:31;12.00;;;7.20;;
11522;SDS011;70090;43.208;27.904;2023-05-23T09:17:58;9.70;;;6.83;;
11522;SDS011;70090;43.208;27.904;2023-05-23T09:20:27;10.57;;;6.70;;
11522;SDS011;70090;43.208;27.904;2023-05-23T09:22:54;9.17;;;7.37;;
11522;SDS011;70090;43.208;27.904;2023-05-23T09:25:21;12.67;;;7.47;;
11522;SDS011;70090;43.208;27.904;2023-05-23T09:27:50;9.47;;;7.20;;
11522;SDS011;70090;43.208;27.904;2023-05-23T09:30:20;9.97;;;7.40;;
11522;SDS011;70090;43.208;27.904;2023-05-23T09:32:59;8.30;;;7.20;;
11522;SDS011;70090;43.208;27.904;2023-05-23T09:35:27;12.43;;;8.07;;
11522;SDS011;70090;43.208;27.904;2023-05-23T09:37:55;9.67;;;7.33;;
11522;SDS011;70090;43.208;27.904;2023-05-23T09:40:28;10.83;;;7.13;;
11522;SDS011;70090;43.208;27.904;2023-05-23T09:42:56;9.67;;;6.83;;
11522;SDS011;70090;43.208;27.904;2023-05-23T09:45:29;8.30;;;7.50;;
11522;SDS011;70090;43.208;27.904;2023-05-23T09:47:57;12.10;;;7.80;;
11522;SDS011;70090;43.208;27.904;2023-05-23T09:50:29;10.33;;;7.30;;
11522;SDS011;70090;43.208;27.904;2023-05-23T09:52:57;11.17;;;6.83;;
11522;SDS011;70090;43.208;27.904;2023-05-23T09:55:24;9.83;;;7.40;;
11522;SDS011;70090;43.208;27.904;2023-05-23T09:57:52;10.10;;;8.20;;
11522;SDS011;70090;43.208;27.904;2023-05-23T10:00:20;9.83;;;7.07;;
11522;SDS011;70090;43.208;27.904;2023-05-23T10:02:54;8.80;;;7.90;;
11522;SDS011;70090;43.208;27.904;2023-05-23T10:05:35;13.13;;;9.30;;
11522;SDS011;70090;43.208;27.904;2023-05-23T10:08:07;12.13;;;7.53;;
11522;SDS011;70090;43.208;27.904;2023-05-23T10:13:46;7.60;;;6.30;;
11522;SDS011;70090;43.208;27.904;2023-05-23T10:16:17;11.47;;;6.93;;
11522;SDS011;70090;43.208;27.904;2023-05-23T10:18:49;11.57;;;7.40;;
11522;SDS011;70090;43.208;27.904;2023-05-23T10:21:23;7.40;;;6.70;;
11522;SDS011;70090;43.208;27.904;2023-05-23T10:23:52;10.97;;;8.00;;
11522;SDS011;70090;43.208;27.904;2023-05-23T10:26:19;10.73;;;7.20;;
11522;SDS011;70090;43.208;27.904;2023-05-23T10:28:47;9.33;;;7.03;;
11522;SDS011;70090;43.208;27.904;2023-05-23T10:31:15;10.20;;;7.30;;
11522;SDS011;70090;43.208;27.904;2023-05-23T10:33:45;9.57;;;7.23;;
11522;SDS011;70090;43.208;27.904;2023-05-23T10:36:20;9.47;;;7.27;;
11522;SDS011;70090;43.208;27.904;2023-05-23T10:38:52;12.50;;;7.70;;
11522;SDS011;70090;43.208;27.904;2023-05-23T10:41:28;10.23;;;7.43;;
11522;SDS011;70090;43.208;27.904;2023-05-23T10:44:01;9.50;;;7.20;;
11522;SDS011;70090;43.208;27.904;2023-05-23T10:49:19;13.70;;;8.43;;
11522;SDS011;70090;43.208;27.904;2023-05-23T10:51:47;13.00;;;8.20;;
11522;SDS011;70090;43.208;27.904;2023-05-23T10:54:17;14.00;;;7.43;;
11522;SDS011;70090;43.208;27.904;2023-05-23T10:56:44;11.80;;;8.20;;
11522;SDS011;70090;43.208;27.904;2023-05-23T10:59:18;14.27;;;9.50;;
11522;SDS011;70090;43.208;27.904;2023-05-23T11:01:48;13.13;;;8.17;;
11522;SDS011;70090;43.208;27.904;2023-05-23T11:04:24;12.93;;;8.30;;
11522;SDS011;70090;43.208;27.904;2023-05-23T11:06:52;12.67;;;8.93;;
11522;SDS011;70090;43.208;27.904;2023-05-23T11:09:19;14.33;;;8.73;;
11522;SDS011;70090;43.208;27.904;2023-05-23T11:11:59;11.37;;;8.43;;
11522;SDS011;70090;43.208;27.904;2023-05-23T11:14:30;14.90;;;9.50;;
11522;SDS011;70090;43.208;27.904;2023-05-23T11:16:58;14.53;;;8.53;;
11522;SDS011;70090;43.208;27.904;2023-05-23T11:19:27;13.83;;;9.40;;
11522;SDS011;70090;43.208;27.904;2023-05-23T11:21:56;13.37;;;10.17;;
11522;SDS011;70090;43.208;27.904;2023-05-23T11:24:30;15.07;;;9.93;;
11522;SDS011;70090;43.208;27.904;2023-05-23T11:27:15;15.23;;;9.87;;
11522;SDS011;70090;43.208;27.904;2023-05-23T11:29:44;14.50;;;10.20;;
11522;SDS011;70090;43.208;27.904;2023-05-23T11:32:22;12.53;;;9.43;;
11522;SDS011;70090;43.208;27.904;2023-05-23T11:34:50;12.77;;;9.70;;
11522;SDS011;70090;43.208;27.904;2023-05-23T11:37:17;13.70;;;9.63;;
11522;SDS011;70090;43.208;27.904;2023-05-23T11:39:45;11.80;;;9.23;;
11522;SDS011;70090;43.208;27.904;2023-05-23T11:42:12;12.23;;;9.77;;
11522;SDS011;70090;43.208;27.904;2023-05-23T11:44:39;11.87;;;9.87;;
11522;SDS011;70090;43.208;27.904;2023-05-23T11:47:05;12.33;;;9.17;;
11522;SDS011;70090;43.208;27.904;2023-05-23T11:49:33;12.37;;;9.37;;
11522;SDS011;70090;43.208;27.904;2023-05-23T11:52:03;9.87;;;7.77;;
11522;SDS011;70090;43.208;27.904;2023-05-23T11:54:31;12.60;;;8.50;;
11522;SDS011;70090;43.208;27.904;2023-05-23T11:56:58;13.33;;;8.50;;
11522;SDS011;70090;43.208;27.904;2023-05-23T11:59:26;14.37;;;8.60;;
11522;SDS011;70090;43.208;27.904;2023-05-23T12:01:53;12.07;;;7.83;;
11522;SDS011;70090;43.208;27.904;2023-05-23T12:04:21;11.17;;;7.57;;
11522;SDS011;70090;43.208;27.904;2023-05-23T12:06:48;8.60;;;7.70;;
11522;SDS011;70090;43.208;27.904;2023-05-23T12:09:16;10.77;;;7.43;;
11522;SDS011;70090;43.208;27.904;2023-05-23T12:11:43;8.43;;;6.77;;
11522;SDS011;70090;43.208;27.904;2023-05-23T12:14:13;9.00;;;6.57;;
11522;SDS011;70090;43.208;27.904;2023-05-23T12:16:42;8.63;;;7.00;;
11522;SDS011;70090;43.208;27.904;2023-05-23T12:19:10;8.40;;;6.63;;
11522;SDS011;70090;43.208;27.904;2023-05-23T12:21:41;10.50;;;7.43;;
11522;SDS011;70090;43.208;27.904;2023-05-23T12:24:17;13.17;;;7.60;;
11522;SDS011;70090;43.208;27.904;2023-05-23T12:26:45;12.93;;;9.83;;
11522;SDS011;70090;43.208;27.904;2023-05-23T12:29:13;11.43;;;7.87;;
11522;SDS011;70090;43.208;27.904;2023-05-23T12:31:40;8.93;;;7.10;;
11522;SDS011;70090;43.208;27.904;2023-05-23T12:34:07;8.77;;;7.60;;
11522;SDS011;70090;43.208;27.904;2023-05-23T12:36:36;12.27;;;7.40;;
11522;SDS011;70090;43.208;27.904;2023-05-23T12:39:04;12.10;;;7.93;;
11522;SDS011;70090;43.208;27.904;2023-05-23T12:41:33;12.77;;;7.70;;
11522;SDS011;70090;43.208;27.904;2023-05-23T12:44:00;12.77;;;7.80;;
11522;SDS011;70090;43.208;27.904;2023-05-23T12:46:27;10.23;;;7.40;;
11522;SDS011;70090;43.208;27.904;2023-05-23T12:48:54;7.77;;;6.43;;
11522;SDS011;70090;43.208;27.904;2023-05-23T12:51:21;10.53;;;7.50;;
11522;SDS011;70090;43.208;27.904;2023-05-23T12:53:48;8.03;;;6.60;;
11522;SDS011;70090;43.208;27.904;2023-05-23T12:56:15;14.13;;;7.07;;
11522;SDS011;70090;43.208;27.904;2023-05-23T12:58:44;9.97;;;6.50;;
11522;SDS011;70090;43.208;27.904;2023-05-23T13:01:11;7.67;;;6.53;;
11522;SDS011;70090;43.208;27.904;2023-05-23T13:03:37;7.57;;;6.87;;
11522;SDS011;70090;43.208;27.904;2023-05-23T13:06:05;7.67;;;6.83;;
11522;SDS011;70090;43.208;27.904;2023-05-23T13:08:32;6.87;;;6.13;;
11522;SDS011;70090;43.208;27.904;2023-05-23T13:10:59;12.47;;;7.00;;
11522;SDS011;70090;43.208;27.904;2023-05-23T13:13:26;7.97;;;6.63;;
11522;SDS011;70090;43.208;27.904;2023-05-23T13:15:54;10.70;;;6.50;;
11522;SDS011;70090;43.208;27.904;2023-05-23T13:18:21;9.77;;;6.80;;
11522;SDS011;70090;43.208;27.904;2023-05-23T13:20:48;8.93;;;6.00;;
11522;SDS011;70090;43.208;27.904;2023-05-23T13:23:15;10.07;;;6.23;;
11522;SDS011;70090;43.208;27.904;2023-05-23T13:25:42;9.37;;;6.73;;
11522;SDS011;70090;43.208;27.904;2023-05-23T13:28:08;8.77;;;6.47;;
11522;SDS011;70090;43.208;27.904;2023-05-23T13:30:35;7.37;;;6.63;;
11522;SDS011;70090;43.208;27.904;2023-05-23T13:33:04;8.87;;;6.40;;
11522;SDS011;70090;43.208;27.904;2023-05-23T13:35:30;8.43;;;6.00;;
11522;SDS011;70090;43.208;27.904;2023-05-23T13:37:57;7.80;;;5.97;;
11522;SDS011;70090;43.208;27.904;2023-05-23T13:40:24;8.90;;;6.77;;
11522;SDS011;70090;43.208;27.904;2023-05-23T13:42:51;14.07;;;8.07;;
11522;SDS011;70090;43.208;27.904;2023-05-23T13:45:18;9.33;;;6.53;;
11522;SDS011;70090;43.208;27.904;2023-05-23T13:47:46;8.87;;;5.93;;
11522;SDS011;70090;43.208;27.904;2023-05-23T13:50:14;9.83;;;6.10;;
11522;SDS011;70090;43.208;27.904;2023-05-23T13:52:41;6.90;;;6.20;;
11522;SDS011;70090;43.208;27.904;2023-05-23T13:55:09;6.93;;;6.23;;
11522;SDS011;70090;43.208;27.904;2023-05-23T13:57:36;6.70;;;6.10;;
11522;SDS011;70090;43.208;27.904;2023-05-23T14:00:03;6.83;;;6.13;;
11522;SDS011;70090;43.208;27.904;2023-05-23T14:02:32;10.87;;;6.30;;
11522;SDS011;70090;43.208;27.904;2023-05-23T14:04:59;7.70;;;6.03;;
11522;SDS011;70090;43.208;27.904;2023-05-23T14:07:27;6.67;;;5.97;;
11522;SDS011;70090;43.208;27.904;2023-05-23T14:09:54;8.43;;;6.30;;
11522;SDS011;70090;43.208;27.904;2023-05-23T14:12:21;7.07;;;6.17;;
11522;SDS011;70090;43.208;27.904;2023-05-23T14:14:48;8.83;;;7.00;;
11522;SDS011;70090;43.208;27.904;2023-05-23T14:17:15;10.57;;;6.90;;
11522;SDS011;70090;43.208;27.904;2023-05-23T14:19:42;11.50;;;6.60;;
11522;SDS011;70090;43.208;27.904;2023-05-23T14:22:09;7.50;;;6.10;;
11522;SDS011;70090;43.208;27.904;2023-05-23T14:24:37;11.33;;;5.90;;
11522;SDS011;70090;43.208;27.904;2023-05-23T14:27:04;7.70;;;5.63;;
11522;SDS011;70090;43.208;27.904;2023-05-23T14:29:31;5.90;;;5.10;;
11522;SDS011;70090;43.208;27.904;2023-05-23T14:31:58;7.37;;;5.70;;
11522;SDS011;70090;43.208;27.904;2023-05-23T14:34:26;7.63;;;5.43;;
11522;SDS011;70090;43.208;27.904;2023-05-23T14:36:53;8.63;;;4.83;;
11522;SDS011;70090;43.208;27.904;2023-05-23T14:39:20;6.17;;;5.50;;
11522;SDS011;70090;43.208;27.904;2023-05-23T14:41:48;8.63;;;5.87;;
11522;SDS011;70090;43.208;27.904;2023-05-23T14:44:15;8.07;;;5.87;;